createdAt,value
2023-12-04T00:01:51.841Z,10.90
2023-12-04T00:04:37.202Z,17.30
2023-12-04T00:07:22.371Z,12.93
2023-12-04T00:10:08.473Z,14.52
2023-12-04T00:12:53.475Z,13.70
2023-12-04T00:15:45.579Z,17.62
2023-12-04T00:18:30.981Z,12.65
2023-12-04T00:21:16.105Z,10.73
2023-12-04T00:24:01.146Z,10.70
2023-12-04T00:26:46.607Z,12.02
2023-12-04T00:29:31.610Z,18.95
2023-12-04T00:32:16.750Z,11.13
2023-12-04T00:35:02.001Z,16.73
2023-12-04T00:37:47.081Z,16.05
2023-12-04T00:40:32.329Z,15.23
2023-12-04T00:43:17.612Z,8.88
2023-12-04T00:46:02.823Z,8.30
2023-12-04T00:48:48.313Z,12.38
2023-12-04T00:51:40.921Z,12.85
2023-12-04T00:54:26.081Z,12.57
2023-12-04T00:57:11.161Z,12.90
2023-12-04T00:59:56.147Z,16.17
2023-12-04T01:02:41.436Z,8.35
2023-12-04T01:05:26.724Z,9.98
2023-12-04T01:08:11.648Z,9.82
2023-12-04T01:10:56.654Z,13.30
2023-12-04T01:13:41.897Z,11.07
2023-12-04T01:16:27.019Z,8.35
2023-12-04T01:19:12.866Z,9.15
2023-12-04T01:21:58.718Z,8.73
2023-12-04T01:24:43.832Z,11.13
2023-12-04T01:27:28.925Z,8.30
2023-12-04T01:30:15.156Z,14.10
2023-12-04T01:33:01.088Z,8.60
2023-12-04T01:35:46.311Z,11.10
2023-12-04T01:38:32.082Z,12.45
2023-12-04T01:41:17.106Z,9.52
2023-12-04T01:44:02.510Z,13.13
2023-12-04T01:46:48.028Z,14.63
2023-12-04T01:49:33.549Z,10.77
2023-12-04T01:52:19.315Z,7.80
2023-12-04T01:55:06.329Z,7.88
2023-12-04T01:57:51.895Z,13.80
2023-12-04T02:00:37.374Z,9.95
2023-12-04T02:03:22.705Z,12.45
2023-12-04T02:06:10.278Z,10.50
2023-12-04T02:08:55.348Z,8.50
2023-12-04T02:11:41.316Z,9.65
2023-12-04T02:14:26.939Z,7.30
2023-12-04T02:17:13.400Z,11.13
2023-12-04T02:19:58.501Z,10.65
2023-12-04T02:22:43.545Z,6.22
2023-12-04T02:25:35.380Z,6.82
2023-12-04T02:28:23.512Z,6.88
2023-12-04T02:31:10.551Z,8.93
2023-12-04T02:33:58.530Z,6.22
2023-12-04T02:36:44.945Z,9.02
2023-12-04T02:39:30.322Z,14.60
2023-12-04T02:42:18.113Z,7.82
2023-12-04T02:45:03.199Z,7.80
2023-12-04T02:47:48.461Z,12.35
2023-12-04T02:50:34.085Z,9.13
2023-12-04T02:53:19.746Z,7.18
2023-12-04T02:56:05.197Z,8.68
2023-12-04T02:58:50.234Z,10.82
2023-12-04T03:01:35.196Z,8.05
2023-12-04T03:04:21.334Z,7.20
2023-12-04T03:07:06.792Z,10.35
2023-12-04T03:09:51.909Z,6.18
2023-12-04T03:12:36.939Z,8.15
2023-12-04T03:15:21.912Z,8.57
2023-12-04T03:18:08.209Z,7.90
2023-12-04T03:20:54.441Z,8.05
2023-12-04T03:23:39.494Z,9.27
2023-12-04T03:26:25.033Z,8.32
2023-12-04T03:29:10.189Z,9.00
2023-12-04T03:31:55.479Z,8.02
2023-12-04T03:34:40.542Z,7.40
2023-12-04T03:37:25.608Z,5.25
2023-12-04T03:40:11.047Z,8.95
2023-12-04T03:42:55.992Z,4.78
2023-12-04T03:45:41.170Z,8.73
2023-12-04T03:48:26.426Z,7.53
2023-12-04T03:51:11.480Z,6.60
2023-12-04T03:53:56.728Z,6.30
2023-12-04T03:56:42.094Z,9.20
2023-12-04T03:59:27.424Z,9.68
2023-12-04T04:02:13.013Z,8.77
2023-12-04T04:04:58.090Z,9.63
2023-12-04T04:07:43.569Z,9.73
2023-12-04T04:10:28.560Z,13.43
2023-12-04T04:13:13.785Z,8.43
2023-12-04T04:15:58.933Z,7.93
2023-12-04T04:18:44.481Z,8.13
2023-12-04T04:21:29.931Z,8.80
2023-12-04T04:24:15.264Z,10.18
2023-12-04T04:27:00.523Z,8.75
2023-12-04T04:29:45.778Z,8.05
2023-12-04T04:32:31.217Z,9.82
2023-12-04T04:35:16.622Z,5.88
2023-12-04T04:38:02.004Z,12.13
2023-12-04T04:40:47.052Z,10.63
2023-12-04T04:43:32.205Z,9.10
2023-12-04T04:46:19.320Z,9.93
2023-12-04T04:49:07.810Z,11.10
2023-12-04T04:51:53.223Z,10.15
2023-12-04T04:54:38.270Z,7.90
2023-12-04T04:57:23.293Z,9.80
2023-12-04T05:00:09.213Z,8.98
2023-12-04T05:02:54.154Z,6.53
2023-12-04T05:05:39.218Z,5.15
2023-12-04T05:08:24.107Z,5.88
2023-12-04T05:11:09.077Z,16.80
2023-12-04T05:13:54.050Z,6.93
2023-12-04T05:16:39.115Z,11.05
2023-12-04T05:19:24.138Z,13.45
2023-12-04T05:22:09.325Z,10.60
2023-12-04T05:24:54.737Z,14.05
2023-12-04T05:27:39.780Z,8.07
2023-12-04T05:30:25.050Z,5.03
2023-12-04T05:33:10.350Z,7.07
2023-12-04T05:35:55.326Z,7.10
2023-12-04T05:38:40.746Z,5.32
2023-12-04T05:41:25.990Z,6.00
2023-12-04T05:44:10.936Z,6.35
2023-12-04T05:46:55.973Z,5.50
2023-12-04T05:49:41.916Z,6.10
2023-12-04T05:52:27.212Z,4.53
2023-12-04T05:55:12.568Z,5.97
2023-12-04T05:57:57.952Z,4.43
2023-12-04T06:00:43.157Z,5.15
2023-12-04T06:03:28.175Z,6.28
2023-12-04T06:06:13.124Z,5.47
2023-12-04T06:08:58.635Z,7.72
2023-12-04T06:11:46.898Z,10.20
2023-12-04T06:14:32.914Z,8.13
2023-12-04T06:17:18.131Z,10.45
2023-12-04T06:20:03.676Z,7.53
2023-12-04T06:22:49.586Z,7.18
2023-12-04T06:25:35.551Z,7.90
2023-12-04T06:28:20.961Z,8.10
2023-12-04T06:31:06.965Z,3.88
2023-12-04T06:33:52.698Z,5.82
2023-12-04T06:36:40.112Z,6.97
2023-12-04T06:39:27.928Z,5.47
2023-12-04T06:42:13.494Z,7.70
2023-12-04T06:44:58.799Z,7.47
2023-12-04T06:47:44.860Z,6.30
2023-12-04T06:50:30.081Z,9.43
2023-12-04T06:53:15.307Z,6.88
2023-12-04T06:56:00.618Z,6.97
2023-12-04T06:58:45.700Z,5.88
2023-12-04T07:01:30.854Z,10.13
2023-12-04T07:04:21.951Z,3.70
2023-12-04T07:07:07.080Z,7.53
2023-12-04T07:09:52.508Z,8.05
2023-12-04T07:12:37.554Z,5.75
2023-12-04T07:15:22.674Z,7.47
2023-12-04T07:18:07.904Z,10.38
2023-12-04T07:20:52.968Z,6.22
2023-12-04T07:23:38.217Z,8.20
2023-12-04T07:26:23.275Z,6.00
2023-12-04T07:29:08.519Z,5.18
2023-12-04T07:31:53.591Z,7.18
2023-12-04T07:34:38.823Z,7.18
2023-12-04T07:37:24.319Z,6.18
2023-12-04T07:40:11.711Z,5.22
2023-12-04T07:42:56.887Z,5.80
2023-12-04T07:45:42.462Z,5.30
2023-12-04T07:48:27.961Z,4.55
2023-12-04T07:51:13.459Z,7.03
2023-12-04T07:54:00.180Z,5.75
2023-12-04T07:56:47.233Z,5.10
2023-12-04T07:59:32.286Z,6.63
2023-12-04T08:02:17.301Z,6.25
2023-12-04T08:05:02.761Z,8.77
2023-12-04T08:07:48.109Z,4.15
2023-12-04T08:10:33.476Z,7.75
2023-12-04T08:13:18.822Z,8.98
2023-12-04T08:16:04.670Z,4.95
2023-12-04T08:18:49.731Z,3.88
2023-12-04T08:21:34.865Z,4.18
2023-12-04T08:24:20.321Z,7.72
2023-12-04T08:27:05.598Z,5.57
2023-12-04T08:29:50.985Z,4.40
2023-12-04T08:32:36.149Z,4.25
2023-12-04T08:35:21.202Z,7.57
2023-12-04T08:38:06.709Z,4.40
2023-12-04T08:40:51.899Z,7.88
2023-12-04T08:43:36.928Z,6.68
2023-12-04T08:46:22.240Z,8.30
2023-12-04T08:49:07.484Z,7.28
2023-12-04T08:51:53.944Z,5.88
2023-12-04T08:54:42.770Z,8.05
2023-12-04T08:57:28.687Z,4.95
2023-12-04T09:00:14.930Z,9.20
2023-12-04T09:03:08.258Z,8.77
2023-12-04T09:05:56.369Z,10.68
2023-12-04T09:08:46.540Z,9.00
2023-12-04T09:11:36.632Z,7.32
2023-12-04T09:14:21.998Z,11.57
2023-12-04T09:17:06.996Z,8.27
2023-12-04T09:19:52.442Z,12.07
2023-12-04T09:22:48.459Z,17.75
2023-12-04T09:25:37.954Z,14.55
2023-12-04T09:28:23.084Z,10.13
2023-12-04T09:31:09.981Z,24.35
2023-12-04T09:33:55.465Z,15.80
2023-12-04T09:36:40.576Z,10.13
2023-12-04T09:39:25.820Z,8.55
2023-12-04T09:42:11.928Z,11.35
2023-12-04T09:44:57.181Z,10.77
2023-12-04T09:47:43.965Z,12.13
2023-12-04T09:50:29.200Z,10.40
2023-12-04T09:53:14.790Z,10.70
2023-12-04T09:56:04.131Z,11.52
2023-12-04T09:58:53.715Z,6.97
2023-12-04T10:01:41.420Z,9.65
2023-12-04T10:04:26.683Z,16.73
2023-12-04T10:07:12.091Z,13.50
2023-12-04T10:09:57.265Z,8.65
2023-12-04T10:12:44.266Z,9.15
2023-12-04T10:15:29.514Z,8.80
2023-12-04T10:18:31.523Z,14.38
2023-12-04T10:21:20.103Z,18.33
2023-12-04T10:24:08.016Z,12.60
2023-12-04T10:26:53.481Z,15.23
2023-12-04T10:29:48.336Z,13.35
2023-12-04T10:32:38.304Z,16.95
2023-12-04T10:35:23.990Z,13.45
2023-12-04T10:38:10.085Z,9.90
2023-12-04T10:40:55.320Z,15.27
2023-12-04T10:43:51.581Z,13.02
2023-12-04T10:46:42.757Z,15.32
2023-12-04T10:49:32.468Z,10.75
2023-12-04T10:52:20.442Z,9.10
2023-12-04T10:55:08.618Z,10.43
2023-12-04T10:57:55.344Z,11.32
2023-12-04T11:00:45.521Z,10.95
2023-12-04T11:03:38.138Z,4.82
2023-12-04T11:06:25.324Z,12.05
2023-12-04T11:09:11.199Z,10.60
2023-12-04T11:12:00.475Z,11.60
2023-12-04T11:14:53.485Z,11.13
2023-12-04T11:17:39.628Z,10.70
2023-12-04T11:20:28.309Z,9.32
2023-12-04T11:23:16.994Z,8.93
2023-12-04T11:26:04.928Z,9.82
2023-12-04T11:28:50.816Z,11.93
2023-12-04T11:31:37.378Z,9.45
2023-12-04T11:34:22.812Z,10.45
2023-12-04T11:37:09.710Z,14.55
2023-12-04T11:39:55.422Z,14.70
2023-12-04T11:42:41.591Z,14.40
2023-12-04T11:45:27.105Z,15.85
2023-12-04T11:48:12.230Z,13.20
2023-12-04T11:50:58.554Z,14.13
2023-12-04T11:53:45.306Z,20.98
2023-12-04T11:56:30.667Z,13.40
2023-12-04T11:59:16.014Z,14.18
2023-12-04T12:02:01.358Z,10.77
2023-12-04T12:04:46.885Z,12.05
2023-12-04T12:07:33.495Z,9.40
2023-12-04T12:10:18.930Z,13.63
2023-12-04T12:13:04.070Z,14.20
2023-12-04T12:15:51.873Z,7.45
2023-12-04T12:18:37.662Z,13.02
2023-12-04T12:21:22.883Z,10.23
2023-12-04T12:24:08.911Z,16.23
2023-12-04T12:26:56.038Z,7.72
2023-12-04T12:29:41.697Z,7.72
2023-12-04T12:32:30.790Z,14.15
2023-12-04T12:35:17.779Z,13.60
2023-12-04T12:38:02.966Z,10.02
2023-12-04T12:40:48.458Z,12.93
2023-12-04T12:43:34.747Z,13.15
2023-12-04T12:46:21.003Z,18.38
2023-12-04T12:49:06.506Z,13.82
2023-12-04T12:51:51.886Z,21.17
2023-12-04T12:54:41.491Z,13.13
2023-12-04T12:57:28.121Z,11.02
2023-12-04T13:00:14.393Z,16.33
2023-12-04T13:02:59.790Z,7.28
2023-12-04T13:05:45.221Z,9.02
2023-12-04T13:08:30.541Z,15.05
2023-12-04T13:11:16.012Z,14.18
2023-12-04T13:14:02.805Z,14.40
2023-12-04T13:16:47.965Z,10.52
2023-12-04T13:19:35.554Z,14.70
2023-12-04T13:22:20.855Z,15.50
2023-12-04T13:25:08.636Z,10.30
2023-12-04T13:27:54.562Z,15.10
2023-12-04T13:30:40.142Z,13.32
2023-12-04T13:33:27.043Z,14.90
2023-12-04T13:36:12.293Z,8.68
2023-12-04T13:38:57.970Z,6.30
2023-12-04T13:42:05.740Z,8.80
2023-12-04T13:44:52.741Z,5.88
2023-12-04T13:47:38.950Z,7.00
2023-12-04T13:50:24.091Z,7.18
2023-12-04T13:53:09.271Z,6.97
2023-12-04T13:55:54.611Z,6.97
2023-12-04T13:58:46.028Z,7.40
2023-12-04T14:01:31.527Z,25.65
2023-12-04T14:04:17.240Z,51.25
2023-12-04T14:07:05.331Z,65.43
2023-12-04T14:09:51.451Z,78.80
2023-12-04T14:12:37.675Z,83.22
2023-12-04T14:15:23.178Z,62.83
2023-12-04T14:18:08.643Z,62.13
2023-12-04T14:20:54.234Z,49.00
2023-12-04T14:23:39.931Z,46.65
2023-12-04T14:26:26.077Z,35.88
2023-12-04T14:29:11.370Z,30.35
2023-12-04T14:31:56.949Z,24.23
2023-12-04T14:34:42.211Z,12.27
2023-12-04T14:37:27.682Z,10.40
2023-12-04T14:40:15.143Z,18.95
2023-12-04T14:43:00.497Z,12.82
2023-12-04T14:45:45.789Z,16.65
2023-12-04T14:48:31.426Z,8.73
2023-12-04T14:51:16.603Z,7.35
2023-12-04T14:54:20.411Z,7.93
2023-12-04T14:57:15.458Z,8.00
2023-12-04T15:00:09.530Z,8.75
2023-12-04T15:03:13.921Z,11.55
2023-12-04T15:06:19.040Z,11.32
2023-12-04T15:09:16.568Z,11.98
2023-12-04T15:12:20.280Z,11.35
2023-12-04T15:15:30.112Z,11.90
2023-12-04T15:21:23.141Z,17.92
2023-12-04T15:24:08.738Z,22.35
2023-12-04T15:26:53.891Z,20.50
2023-12-04T15:29:39.568Z,18.30
2023-12-04T15:32:24.798Z,16.63
2023-12-04T15:35:14.400Z,13.65
2023-12-04T15:38:00.085Z,12.00
2023-12-04T15:40:45.281Z,8.95
2023-12-04T15:43:30.168Z,9.00
2023-12-04T15:46:16.500Z,10.10
2023-12-04T15:49:01.532Z,12.38
2023-12-04T15:51:47.062Z,6.63
2023-12-04T15:54:35.039Z,9.75
2023-12-04T15:57:20.569Z,9.13
2023-12-04T16:00:16.597Z,8.13
2023-12-04T16:03:01.975Z,8.32
2023-12-04T16:05:48.609Z,12.75
2023-12-04T16:08:33.775Z,7.28
2023-12-04T16:11:21.726Z,7.30
2023-12-04T16:14:08.384Z,6.45
2023-12-04T16:16:53.655Z,9.05
2023-12-04T16:19:38.751Z,11.40
2023-12-04T16:22:24.535Z,7.28
2023-12-04T16:25:19.335Z,10.70
2023-12-04T16:28:07.121Z,6.80
2023-12-04T16:30:52.332Z,7.25
2023-12-04T16:33:37.750Z,8.55
2023-12-04T16:36:23.140Z,7.95
2023-12-04T16:39:08.457Z,6.63
2023-12-04T16:41:54.884Z,7.07
2023-12-04T16:44:39.966Z,5.95
2023-12-04T16:47:25.236Z,7.43
2023-12-04T16:50:11.240Z,5.72
2023-12-04T16:52:56.438Z,7.60
2023-12-04T16:55:41.447Z,5.05
2023-12-04T16:58:26.547Z,9.32
2023-12-04T17:01:12.081Z,11.20
2023-12-04T17:03:57.554Z,12.70
2023-12-04T17:06:42.859Z,12.82
2023-12-04T17:09:28.032Z,14.10
2023-12-04T17:12:13.923Z,13.45
2023-12-04T17:15:00.256Z,10.07
2023-12-04T17:17:45.863Z,12.02
2023-12-04T17:20:31.424Z,9.32
2023-12-04T17:23:16.379Z,9.32
2023-12-04T17:26:02.239Z,12.65
2023-12-04T17:28:47.875Z,15.48
2023-12-04T17:31:33.100Z,15.45
2023-12-04T17:34:18.185Z,12.63
2023-12-04T17:37:02.970Z,12.27
2023-12-04T17:39:48.251Z,11.27
2023-12-04T17:42:33.232Z,10.38
2023-12-04T17:45:18.296Z,13.80
2023-12-04T17:48:04.746Z,9.68
2023-12-04T17:50:49.609Z,11.52
2023-12-04T17:53:34.679Z,12.48
2023-12-04T17:56:19.766Z,12.25
2023-12-04T17:59:04.890Z,13.20
2023-12-04T18:01:50.790Z,13.73
2023-12-04T18:04:36.584Z,11.77
2023-12-04T18:07:22.144Z,17.67
2023-12-04T18:10:08.661Z,17.33
2023-12-04T18:12:53.875Z,16.67
2023-12-04T18:15:39.494Z,13.60
2023-12-04T18:18:25.725Z,15.52
2023-12-04T18:21:11.478Z,15.77
2023-12-04T18:23:56.307Z,14.85
2023-12-04T18:26:43.570Z,13.23
2023-12-04T18:29:29.064Z,15.05
2023-12-04T18:32:14.656Z,11.43
2023-12-04T18:35:00.041Z,11.52
2023-12-04T18:37:51.782Z,13.15
2023-12-04T18:40:36.883Z,13.40
2023-12-04T18:43:22.592Z,15.82
2023-12-04T18:46:09.083Z,13.88
2023-12-04T18:48:55.430Z,14.27
2023-12-04T18:51:41.012Z,15.85
2023-12-04T18:54:26.299Z,13.50
2023-12-04T18:57:11.999Z,15.93
2023-12-04T18:59:57.425Z,16.40
2023-12-04T19:02:42.501Z,14.45
2023-12-04T19:05:31.654Z,12.23
2023-12-04T19:08:17.894Z,12.07
2023-12-04T19:11:02.989Z,14.32
2023-12-04T19:13:48.199Z,14.93
2023-12-04T19:16:33.093Z,17.75
2023-12-04T19:19:18.472Z,13.00
2023-12-04T19:22:04.233Z,14.20
2023-12-04T19:24:49.959Z,14.77
2023-12-04T19:27:35.044Z,15.57
2023-12-04T19:30:20.119Z,14.02
2023-12-04T19:33:08.863Z,12.18
2023-12-04T19:36:04.679Z,11.15
2023-12-04T19:38:50.576Z,10.52
2023-12-04T19:41:35.913Z,10.15
2023-12-04T19:44:23.249Z,9.43
2023-12-04T19:47:08.396Z,9.35
2023-12-04T19:49:53.532Z,7.55
2023-12-04T19:52:39.757Z,10.27
2023-12-04T19:55:25.009Z,6.65
2023-12-04T19:58:10.024Z,7.63
2023-12-04T20:00:55.175Z,6.10
2023-12-04T20:03:40.728Z,6.72
2023-12-04T20:06:26.482Z,6.15
2023-12-04T20:09:11.709Z,8.15
2023-12-04T20:11:56.974Z,6.00
2023-12-04T20:14:42.294Z,6.65
2023-12-04T20:17:27.410Z,6.60
2023-12-04T20:20:12.943Z,8.88
2023-12-04T20:22:58.056Z,5.85
2023-12-04T20:25:43.752Z,7.30
2023-12-04T20:28:29.031Z,5.88
2023-12-04T20:31:14.481Z,7.32
2023-12-04T20:33:59.874Z,6.03
2023-12-04T20:36:45.007Z,6.88
2023-12-04T20:39:30.218Z,9.02
2023-12-04T20:42:18.622Z,33.45
2023-12-04T20:45:04.954Z,16.88
2023-12-04T20:47:50.297Z,14.35
2023-12-04T20:50:35.875Z,13.32
2023-12-04T20:53:20.995Z,12.05
2023-12-04T20:56:06.323Z,12.65
2023-12-04T20:58:51.244Z,14.77
2023-12-04T21:01:36.598Z,9.90
2023-12-04T21:04:21.851Z,11.68
2023-12-04T21:07:07.811Z,10.80
2023-12-04T21:09:53.794Z,15.65
2023-12-04T21:12:38.958Z,12.85
2023-12-04T21:15:24.795Z,16.63
2023-12-04T21:18:10.212Z,28.20
2023-12-04T21:20:56.432Z,25.75
2023-12-04T21:23:42.252Z,33.22
2023-12-04T21:26:27.414Z,15.30
2023-12-04T21:29:12.576Z,14.88
2023-12-04T21:31:57.665Z,14.38
2023-12-04T21:34:42.651Z,13.57
2023-12-04T21:37:27.752Z,13.68
2023-12-04T21:40:13.355Z,14.48
2023-12-04T21:42:58.506Z,13.70
2023-12-04T21:45:43.370Z,11.15
2023-12-04T21:48:28.862Z,14.48
2023-12-04T21:51:14.359Z,15.27
2023-12-04T21:53:59.411Z,14.43
2023-12-04T21:56:44.947Z,13.48
2023-12-04T21:59:30.508Z,12.02
2023-12-04T22:02:16.108Z,12.20
2023-12-04T22:05:01.340Z,12.05
2023-12-04T22:07:46.734Z,14.48
2023-12-04T22:10:31.961Z,12.02
2023-12-04T22:13:18.299Z,11.88
2023-12-04T22:16:03.909Z,9.85
2023-12-04T22:18:49.994Z,13.82
2023-12-04T22:21:35.490Z,9.68
2023-12-04T22:24:20.899Z,13.60
2023-12-04T22:27:05.959Z,12.52
2023-12-04T22:29:51.045Z,15.15
2023-12-04T22:32:36.070Z,16.05
2023-12-04T22:35:21.446Z,15.73
2023-12-04T22:38:06.747Z,20.23
2023-12-04T22:40:52.554Z,13.75
2023-12-04T22:43:38.025Z,14.52
2023-12-04T22:46:22.904Z,15.02
2023-12-04T22:49:08.242Z,16.25
2023-12-04T22:51:53.481Z,13.23
2023-12-04T22:54:38.854Z,20.77
2023-12-04T22:57:23.927Z,23.23
2023-12-04T23:00:13.109Z,11.30
2023-12-04T23:02:58.296Z,13.23
2023-12-04T23:05:43.493Z,12.70
2023-12-04T23:08:28.428Z,13.20
2023-12-04T23:11:13.783Z,15.05
2023-12-04T23:13:58.950Z,12.15
2023-12-04T23:16:44.843Z,12.07
2023-12-04T23:19:29.902Z,10.60
2023-12-04T23:22:15.261Z,12.48
2023-12-04T23:25:00.538Z,14.55
2023-12-04T23:27:45.792Z,13.70
2023-12-04T23:30:31.110Z,10.43
2023-12-04T23:33:16.267Z,15.55
2023-12-04T23:36:01.265Z,14.10
2023-12-04T23:38:46.257Z,13.48
2023-12-04T23:41:31.261Z,15.45
2023-12-04T23:44:16.370Z,14.20
2023-12-04T23:47:01.500Z,15.70
2023-12-04T23:49:46.961Z,15.85
2023-12-04T23:52:32.099Z,12.77
2023-12-04T23:55:17.787Z,18.02
2023-12-04T23:58:03.087Z,13.27
